createdAt,value
2022-11-29T00:16:56.685Z,15
2022-11-29T00:45:44.756Z,13
2022-11-29T01:14:12.484Z,13
2022-11-29T01:42:29.009Z,12
2022-11-29T02:10:32.169Z,10
2022-11-29T02:38:55.288Z,8
2022-11-29T03:07:05.936Z,7
2022-11-29T03:36:14.482Z,7
2022-11-29T04:05:22.485Z,8
2022-11-29T04:34:19.846Z,10
2022-11-29T05:02:35.841Z,11
2022-11-29T05:31:18.526Z,19
2022-11-29T06:00:07.446Z,18
2022-11-29T06:28:54.573Z,14
2022-11-29T06:57:48.532Z,17
2022-11-29T07:25:58.611Z,20
2022-11-29T07:54:51.163Z,18
2022-11-29T08:23:46.641Z,15
2022-11-29T08:52:37.052Z,13
2022-11-29T09:21:25.913Z,14
2022-11-29T09:50:16.653Z,13
2022-11-29T10:19:12.345Z,20
2022-11-29T10:47:38.494Z,25
2022-11-29T11:16:00.269Z,30
2022-11-29T12:12:40.128Z,34
2022-11-29T12:41:04.164Z,28
2022-11-29T13:09:44.561Z,27
2022-11-29T13:38:19.004Z,27
2022-11-29T14:07:10.281Z,31
2022-11-29T14:35:59.074Z,29
2022-11-29T15:04:57.618Z,30
2022-11-29T15:33:50.230Z,33
2022-11-29T16:02:39.690Z,36
2022-11-29T16:31:29.468Z,37
2022-11-29T17:00:13.053Z,41
2022-11-29T17:28:29.112Z,44
2022-11-29T17:56:42.409Z,38
2022-11-29T18:25:39.381Z,37
2022-11-29T18:54:07.536Z,40
2022-11-29T19:23:07.401Z,46
2022-11-29T19:52:04.968Z,49
2022-11-29T20:21:03.128Z,52
2022-11-29T20:50:03.121Z,53
2022-11-29T21:19:00.066Z,55
2022-11-29T21:47:52.961Z,55
2022-11-29T22:16:07.736Z,59
2022-11-29T22:44:27.626Z,54
2022-11-29T23:12:42.437Z,44
2022-11-29T23:40:59.007Z,48
